Terminal Aerodrome Forecast
Issued by NWS Portland, OR

Home | Current Version | Previous Version | Text Only | Print | Product List | Glossary On
Versions: 1 2 3 4 5 6 7 8 9 10 11 12 13 14 15 16 17 18 19
000
FTUS46 KPQR 211737
TAFSLE
TAF
KSLE 211737Z 2118/2218 VRB03KT 2SM -RA BR SCT005 BKN050 OVC070
     FM212000 17006KT P6SM -RA SCT025 BKN050 OVC070
     FM220000 18009KT P6SM -RA SCT035 BKN060 OVC100
     FM220700 17005KT P6SM -RA BKN025 OVC040=

USA.gov is the U.S. government's official web portal to all federal, state and local government web resources and services.